Time;durP1;ratioP1;P1;durP2;ratioP2;P2;SDS_P1;SDS_P2;PMS_P1;PMS_P2;Temp;Humidity;BMP_temperature;BMP_pressure;BME280_temperature;BME280_humidity;BME280_pressure;Samples;Min_cycle;Max_cycle;Signal;HPM_P1;HPM_P2
2022/05/21 00:01:52;;;;;;;;;;;359.30;2150.40;;;;;;5115420;28;19904;-77
2022/05/21 00:04:18;;;;;;;;;;;384.10;2150.40;;;;;;5114769;28;19903;-78
2022/05/21 00:06:44;;;;;;;;;;;384.10;2150.40;;;;;;5115733;28;19957;-76
2022/05/21 00:09:09;;;;;;;;;;;384.00;2176.00;;;;;;5114378;28;19911;-78
2022/05/21 00:11:35;;;;;;;;;;;384.10;2176.00;;;;;;5115927;28;20321;-78
2022/05/21 00:14:02;;;;;;;;;;;384.20;2176.00;;;;;;5114545;28;19994;-77
2022/05/21 00:16:28;;;;;;;;;;;384.10;2176.00;;;;;;5114182;28;19904;-78
2022/05/21 00:18:53;;;;;;;;;;;384.10;2176.00;;;;;;5116068;28;19911;-78
2022/05/21 00:21:19;;;;;;;;;;;384.10;2176.00;;;;;;5115663;28;19903;-76
2022/05/21 00:23:45;;;;;;;;;;;384.30;2176.00;;;;;;5117605;28;19953;-76
2022/05/21 00:26:11;;;;;;;;;;;384.20;2176.00;;;;;;5114283;28;19946;-78
2022/05/21 00:28:39;;;;;;;;;;;384.10;2176.00;;;;;;5113868;28;19911;-76
2022/05/21 00:31:06;;;;;;;;;;;384.10;2176.00;;;;;;5114318;28;19912;-77
2022/05/21 00:33:31;;;;;;;;;;;359.30;2201.60;;;;;;5113460;28;19908;-77
2022/05/21 00:35:57;;;;;;;;;;;359.20;2201.60;;;;;;5114856;28;19912;-78
2022/05/21 00:38:23;;;;;;;;;;;359.20;2227.20;;;;;;5113868;28;19955;-78
2022/05/21 00:40:50;;;;;;;;;;;359.10;2227.20;;;;;;5115636;28;19910;-77
2022/05/21 00:43:34;;;;;;;;;;;359.00;2252.80;;;;;;5114879;28;19912;-77
2022/05/21 00:46:00;;;;;;;;;;;359.10;2252.80;;;;;;5113867;28;19913;-78
2022/05/21 00:48:26;;;;;;;;;;;359.10;2227.20;;;;;;5113811;28;19977;-77
2022/05/21 00:50:52;;;;;;;;;;;359.00;2252.80;;;;;;5114479;28;19916;-77
2022/05/21 00:53:18;;;;;;;;;;;359.00;2252.80;;;;;;5113771;28;20283;-78
2022/05/21 00:55:44;;;;;;;;;;;358.80;2252.80;;;;;;5113746;28;19911;-77
2022/05/21 01:00:56;;;;;;;;;;;358.50;2304.00;;;;;;5114996;28;20372;-77
2022/05/21 01:03:22;;;;;;;;;;;358.90;2252.80;;;;;;5113579;28;19903;-76
2022/05/21 01:05:48;;;;;;;;;;;358.70;2278.40;;;;;;5114701;28;19966;-78
2022/05/21 01:08:14;;;;;;;;;;;358.70;2252.80;;;;;;5113486;28;19911;-77
2022/05/21 01:10:42;;;;;;;;;;;358.60;2278.40;;;;;;5113277;28;19907;-77
2022/05/21 01:13:10;;;;;;;;;;;358.80;2278.40;;;;;;5113647;28;19998;-78
2022/05/21 01:15:49;;;;;;;;;;;358.50;2304.00;;;;;;5114458;28;19926;-78
2022/05/21 01:18:15;;;;;;;;;;;358.50;2304.00;;;;;;5114796;28;19908;-77
2022/05/21 01:20:47;;;;;;;;;;;358.70;2304.00;;;;;;5113388;28;19903;-78
2022/05/21 01:23:12;;;;;;;;;;;358.70;2304.00;;;;;;5113314;28;19904;-77
2022/05/21 01:25:39;;;;;;;;;;;358.50;2329.60;;;;;;5114061;28;20310;-78
2022/05/21 01:28:08;;;;;;;;;;;333.70;2329.60;;;;;;5113247;28;19934;-78
2022/05/21 01:30:36;;;;;;;;;;;333.60;2329.60;;;;;;5113164;28;20307;-76
2022/05/21 01:33:04;;;;;;;;;;;358.50;2304.00;;;;;;5113075;28;19911;-77
2022/05/21 01:35:29;;;;;;;;;;;333.70;2329.60;;;;;;5113184;28;19911;-78
2022/05/21 01:37:55;;;;;;;;;;;333.70;2329.60;;;;;;5112799;28;19916;-77
2022/05/21 01:40:20;;;;;;;;;;;333.70;2329.60;;;;;;5113048;28;19907;-78
2022/05/21 01:44:37;;;;;;;;;;;333.60;2329.60;;;;;;5113296;28;19910;-75
2022/05/21 01:45:32;;;;;;;;;;;;;;;;;;5120364;28;19903;-76
2022/05/21 01:47:58;;;;;;;;;;;333.10;2329.60;;;;;;5122055;28;20422;-78
2022/05/21 01:50:24;;;;;;;;;;;332.90;2329.60;;;;;;5121253;28;20405;-77
2022/05/21 01:52:49;;;;;;;;;;;333.30;2329.60;;;;;;5122015;28;19907;-77
2022/05/21 01:55:15;;;;;;;;;;;332.90;2329.60;;;;;;5120671;28;19910;-78
2022/05/21 01:57:40;;;;;;;;;;;332.90;2329.60;;;;;;5117986;28;20344;-79
2022/05/21 02:00:06;;;;;;;;;;;333.00;2329.60;;;;;;5120619;28;19908;-77
2022/05/21 02:02:33;;;;;;;;;;;333.20;2329.60;;;;;;5121820;28;19949;-76
2022/05/21 02:04:59;;;;;;;;;;;308.10;2304.00;;;;;;5121506;27;19939;-76
2022/05/21 02:07:24;;;;;;;;;;;332.90;2329.60;;;;;;5120608;28;19903;-77
2022/05/21 02:09:50;;;;;;;;;;;;;;;;;;5120591;28;20424;-77
2022/05/21 02:12:16;;;;;;;;;;;332.90;2329.60;;;;;;5121197;27;19903;-76
2022/05/21 02:14:43;;;;;;;;;;;307.90;2304.00;;;;;;5120742;28;19904;-78
2022/05/21 02:17:08;;;;;;;;;;;307.80;2304.00;;;;;;5129915;28;19943;-77
2022/05/21 02:19:34;;;;;;;;;;;307.90;2304.00;;;;;;5142552;28;19910;-77
2022/05/21 02:22:00;;;;;;;;;;;307.60;2304.00;;;;;;5142768;28;19899;-79
2022/05/21 02:24:26;;;;;;;;;;;307.70;2304.00;;;;;;5142553;28;19892;-78
2022/05/21 02:26:51;;;;;;;;;;;307.80;2304.00;;;;;;5142429;28;19899;-78
2022/05/21 02:29:18;;;;;;;;;;;307.90;2304.00;;;;;;5142127;28;19900;-77
2022/05/21 02:31:44;;;;;;;;;;;307.70;2304.00;;;;;;5142244;28;19947;-77
2022/05/21 02:34:09;;;;;;;;;;;333.00;2329.60;;;;;;5142380;28;19899;-77
2022/05/21 02:39:28;;;;;;;;;;;307.90;2304.00;;;;;;5142519;28;19973;-78
2022/05/21 02:41:56;;;;;;;;;;;308.10;2304.00;;;;;;5141950;28;19923;-78
2022/05/21 02:44:22;;;;;;;;;;;308.10;2304.00;;;;;;5131677;28;19908;-77
2022/05/21 02:46:47;;;;;;;;;;;308.10;2304.00;;;;;;5116438;28;19911;-78
2022/05/21 02:49:13;;;;;;;;;;;332.90;2329.60;;;;;;5116072;28;20280;-77
2022/05/21 02:51:39;;;;;;;;;;;332.90;2329.60;;;;;;5116846;28;20265;-76
2022/05/21 02:54:06;;;;;;;;;;;332.80;2329.60;;;;;;5119503;28;19904;-78
2022/05/21 02:56:32;;;;;;;;;;;308.10;2304.00;;;;;;5117388;28;19904;-79
2022/05/21 02:58:58;;;;;;;;;;;308.00;2304.00;;;;;;5120063;27;19904;-78
2022/05/21 03:01:23;;;;;;;;;;;308.10;2304.00;;;;;;5116713;28;19907;-79
2022/05/21 03:03:49;;;;;;;;;;;307.70;2304.00;;;;;;5116340;28;19911;-77
2022/05/21 03:06:15;;;;;;;;;;;307.50;2304.00;;;;;;5117256;28;20010;-77
2022/05/21 03:11:24;;;;;;;;;;;307.90;2304.00;;;;;;5117440;28;19918;-77
2022/05/21 03:13:50;;;;;;;;;;;307.70;2304.00;;;;;;5118224;28;20368;-79
2022/05/21 03:16:16;;;;;;;;;;;307.70;2304.00;;;;;;5117930;28;19992;-78
2022/05/21 03:18:41;;;;;;;;;;;307.30;2304.00;;;;;;5117615;28;19903;-79
2022/05/21 03:21:07;;;;;;;;;;;307.30;2304.00;;;;;;5116190;28;19903;-76
2022/05/21 03:23:32;;;;;;;;;;;282.50;2278.40;;;;;;5115530;28;19908;-78
2022/05/21 03:25:58;;;;;;;;;;;282.50;2278.40;;;;;;5115771;28;20277;-79
2022/05/21 03:28:23;;;;;;;;;;;307.40;2304.00;;;;;;5115574;28;20352;-77
2022/05/21 03:30:50;;;;;;;;;;;307.60;2304.00;;;;;;5115220;28;19919;-79
2022/05/21 03:33:16;;;;;;;;;;;307.50;2304.00;;;;;;5115474;28;20320;-79
2022/05/21 03:35:41;;;;;;;;;;;307.60;2304.00;;;;;;5115399;28;19903;-80
2022/05/21 03:38:08;;;;;;;;;;;307.60;2304.00;;;;;;5114929;28;20006;-79
2022/05/21 03:40:34;;;;;;;;;;;307.60;2304.00;;;;;;5116415;28;20310;-79
2022/05/21 03:42:59;;;;;;;;;;;307.30;2304.00;;;;;;5115327;28;19998;-79
2022/05/21 03:45:26;;;;;;;;;;;307.50;2304.00;;;;;;5114975;28;19903;-81
2022/05/21 03:47:52;;;;;;;;;;;307.60;2304.00;;;;;;5115094;28;20264;-77
2022/05/21 03:50:19;;;;;;;;;;;307.40;2304.00;;;;;;5116326;28;19907;-77
2022/05/21 03:52:45;;;;;;;;;;;307.60;2304.00;;;;;;5116123;28;19947;-79
2022/05/21 03:55:11;;;;;;;;;;;307.60;2304.00;;;;;;5116325;28;19957;-78
2022/05/21 03:57:36;;;;;;;;;;;307.60;2304.00;;;;;;5115126;28;20408;-80
2022/05/21 04:00:07;;;;;;;;;;;307.70;2304.00;;;;;;5115963;28;19995;-77
2022/05/21 04:02:32;;;;;;;;;;;307.70;2304.00;;;;;;5114804;28;19904;-78
2022/05/21 04:04:59;;;;;;;;;;;307.60;2304.00;;;;;;5115053;28;19953;-78
2022/05/21 04:07:24;;;;;;;;;;;307.50;2304.00;;;;;;5114611;28;19911;-77
2022/05/21 04:09:50;;;;;;;;;;;307.50;2304.00;;;;;;5114940;28;19915;-78
2022/05/21 04:12:16;;;;;;;;;;;307.70;2304.00;;;;;;5114680;28;20344;-77
2022/05/21 04:14:41;;;;;;;;;;;307.70;2304.00;;;;;;5115397;28;20000;-80
2022/05/21 04:17:13;;;;;;;;;;;307.70;2304.00;;;;;;5114557;28;19911;-79
2022/05/21 04:19:42;;;;;;;;;;;307.80;2304.00;;;;;;5114002;28;19907;-78
2022/05/21 04:22:08;;;;;;;;;;;308.00;2304.00;;;;;;5114384;28;19903;-79
2022/05/21 04:24:34;;;;;;;;;;;307.90;2304.00;;;;;;5114417;28;19911;-78
2022/05/21 04:26:59;;;;;;;;;;;307.90;2304.00;;;;;;5115763;28;19905;-79
2022/05/21 04:29:25;;;;;;;;;;;308.10;2304.00;;;;;;5114129;28;19908;-79
2022/05/21 04:31:51;;;;;;;;;;;332.80;2329.60;;;;;;5115744;28;20276;-77
2022/05/21 04:34:17;;;;;;;;;;;307.90;2304.00;;;;;;5114058;28;19903;-77
2022/05/21 04:36:42;;;;;;;;;;;308.00;2304.00;;;;;;5114271;28;19910;-78
2022/05/21 04:39:08;;;;;;;;;;;308.10;2304.00;;;;;;5115814;28;19915;-78
2022/05/21 04:41:34;;;;;;;;;;;332.90;2329.60;;;;;;5113938;28;19918;-79
2022/05/21 04:44:00;;;;;;;;;;;308.00;2304.00;;;;;;5114042;28;19947;-80
2022/05/21 04:46:25;;;;;;;;;;;332.80;2329.60;;;;;;5114999;28;19911;-78
2022/05/21 04:48:51;;;;;;;;;;;332.80;2329.60;;;;;;5113620;28;19911;-78
2022/05/21 04:51:17;;;;;;;;;;;308.10;2304.00;;;;;;5113935;28;19953;-77
2022/05/21 04:53:42;;;;;;;;;;;307.80;2304.00;;;;;;5114001;28;19910;-78
2022/05/21 04:56:08;;;;;;;;;;;308.10;2304.00;;;;;;5114843;28;20394;-80
2022/05/21 04:58:33;;;;;;;;;;;308.10;2304.00;;;;;;5113596;28;19904;-78
2022/05/21 05:01:00;;;;;;;;;;;308.10;2304.00;;;;;;5115011;28;19911;-77
2022/05/21 05:03:26;;;;;;;;;;;332.80;2329.60;;;;;;5113497;28;19952;-80
2022/05/21 05:05:51;;;;;;;;;;;333.00;2329.60;;;;;;5113790;28;19994;-78
2022/05/21 05:08:18;;;;;;;;;;;333.10;2329.60;;;;;;5113566;28;20004;-81
2022/05/21 05:10:44;;;;;;;;;;;333.30;2329.60;;;;;;5112994;28;19908;-79
2022/05/21 05:13:10;;;;;;;;;;;333.50;2329.60;;;;;;5113671;28;19910;-79
2022/05/21 05:15:36;;;;;;;;;;;333.40;2329.60;;;;;;5114807;28;19903;-78
2022/05/21 05:18:03;;;;;;;;;;;333.30;2329.60;;;;;;5113262;28;19904;-79
2022/05/21 05:20:28;;;;;;;;;;;333.40;2329.60;;;;;;5112994;28;19904;-79
2022/05/21 05:22:54;;;;;;;;;;;333.40;2329.60;;;;;;5113326;28;19999;-77
2022/05/21 05:25:19;;;;;;;;;;;333.40;2329.60;;;;;;5113448;28;20344;-78
2022/05/21 05:27:46;;;;;;;;;;;333.50;2329.60;;;;;;5114343;28;19908;-79
2022/05/21 05:30:12;;;;;;;;;;;333.60;2329.60;;;;;;5113321;28;19951;-77
2022/05/21 05:32:38;;;;;;;;;;;333.70;2329.60;;;;;;5113443;28;19904;-77
2022/05/21 05:35:03;;;;;;;;;;;358.40;2329.60;;;;;;5113066;28;20371;-79
2022/05/21 05:37:29;;;;;;;;;;;358.70;2329.60;;;;;;5113073;28;19927;-78
2022/05/21 05:39:57;;;;;;;;;;;358.60;2329.60;;;;;;5113214;28;20018;-77
2022/05/21 05:42:22;;;;;;;;;;;358.80;2329.60;;;;;;5113297;28;19914;-77
2022/05/21 05:44:48;;;;;;;;;;;359.00;2329.60;;;;;;5114785;28;19998;-77
2022/05/21 05:47:14;;;;;;;;;;;359.00;2329.60;;;;;;5113079;28;19907;-78
2022/05/21 05:49:39;;;;;;;;;;;359.10;2329.60;;;;;;5113331;28;19912;-78
2022/05/21 05:52:05;;;;;;;;;;;359.30;2329.60;;;;;;5115082;28;19910;-77
2022/05/21 05:54:32;;;;;;;;;;;359.30;2329.60;;;;;;5112873;28;20356;-78
2022/05/21 05:56:58;;;;;;;;;;;384.30;2329.60;;;;;;5113316;28;19904;-79
2022/05/21 06:04:52;;;;;;;;;;;384.90;2329.60;;;;;;5114617;28;19910;-78
2022/05/21 06:07:17;;;;;;;;;;;409.80;2355.20;;;;;;5113075;28;19907;-78
2022/05/21 06:09:43;;;;;;;;;;;;;;;;;;5112850;28;19904;-79
2022/05/21 06:12:09;;;;;;;;;;;410.10;2355.20;;;;;;5112757;28;20301;-78
2022/05/21 06:14:35;;;;;;;;;;;410.30;2355.20;;;;;;5113131;28;19903;-81
2022/05/21 06:17:01;;;;;;;;;;;409.80;2355.20;;;;;;5113078;28;19904;-79
2022/05/21 06:19:27;;;;;;;;;;;410.20;2355.20;;;;;;5113473;28;19953;-77
2022/05/21 06:21:57;;;;;;;;;;;410.40;2355.20;;;;;;5113485;28;19994;-79
2022/05/21 06:24:22;;;;;;;;;;;435.20;2355.20;;;;;;5112774;28;19903;-79
2022/05/21 06:26:48;;;;;;;;;;;435.40;2355.20;;;;;;5113029;28;19903;-79
2022/05/21 06:29:13;;;;;;;;;;;435.60;2355.20;;;;;;5113729;28;19938;-79
2022/05/21 06:31:39;;;;;;;;;;;435.70;2355.20;;;;;;5115574;28;19910;-79
2022/05/21 06:34:04;;;;;;;;;;;436.00;2355.20;;;;;;5118377;28;19907;-79
2022/05/21 06:36:30;;;;;;;;;;;436.10;2329.60;;;;;;5116458;28;20264;-77
2022/05/21 06:38:56;;;;;;;;;;;460.80;2355.20;;;;;;5116272;28;19915;-79
2022/05/21 06:41:21;;;;;;;;;;;460.90;2355.20;;;;;;5117953;28;20292;-79
2022/05/21 06:43:47;;;;;;;;;;;460.90;2329.60;;;;;;5124547;28;19911;-78
2022/05/21 06:46:13;;;;;;;;;;;461.00;2329.60;;;;;;5141137;28;19888;-79
2022/05/21 06:48:38;;;;;;;;;;;461.10;2304.00;;;;;;5140855;28;19911;-77
2022/05/21 06:51:07;;;;;;;;;;;461.20;2278.40;;;;;;5140516;28;19926;-78
2022/05/21 06:53:34;;;;;;;;;;;461.40;2252.80;;;;;;5140768;28;19892;-78
2022/05/21 06:55:59;;;;;;;;;;;461.50;2252.80;;;;;;5126604;28;20359;-79
2022/05/21 06:58:25;;;;;;;;;;;461.70;2252.80;;;;;;5116032;28;19904;-78
2022/05/21 07:00:50;;;;;;;;;;;486.40;2227.20;;;;;;5116352;28;19904;-81
2022/05/21 07:03:16;;;;;;;;;;;486.50;2201.60;;;;;;5116454;28;19903;-79
2022/05/21 07:08:30;;;;;;;;;;;486.80;2176.00;;;;;;5117297;28;20482;-79
2022/05/21 07:10:56;;;;;;;;;;;487.00;2176.00;;;;;;5116204;28;20268;-79
2022/05/21 07:13:22;;;;;;;;;;;487.00;2150.40;;;;;;5115639;28;19910;-79
2022/05/21 07:15:49;;;;;;;;;;;487.10;2150.40;;;;;;5116073;28;20302;-80
2022/05/21 07:18:16;;;;;;;;;;;487.30;2124.80;;;;;;5115593;28;19947;-78
2022/05/21 07:20:41;;;;;;;;;;;512.20;2099.20;;;;;;5116906;28;19904;-79
2022/05/21 07:23:07;;;;;;;;;;;512.30;2099.20;;;;;;5116124;28;19907;-79
2022/05/21 07:25:33;;;;;;;;;;;512.50;2073.60;;;;;;5116812;28;20337;-80
2022/05/21 07:27:59;;;;;;;;;;;512.90;2048.00;;;;;;5115664;28;20357;-80
2022/05/21 07:30:24;;;;;;;;;;;537.80;2073.60;;;;;;5115818;28;19951;-80
2022/05/21 07:32:51;;;;;;;;;;;537.70;2022.40;;;;;;5115828;28;20337;-81
2022/05/21 07:35:19;;;;;;;;;;;538.00;2022.40;;;;;;5115881;28;19910;-80
2022/05/21 07:37:44;;;;;;;;;;;538.30;1996.80;;;;;;5121200;28;19919;-77
2022/05/21 07:40:11;;;;;;;;;;;563.20;2022.40;;;;;;5125456;28;19924;-77
2022/05/21 07:42:37;;;;;;;;;;;563.40;1996.80;;;;;;5122209;28;19907;-80
2022/05/21 07:45:03;;;;;;;;;;;563.20;1971.20;;;;;;5115439;28;19911;-80
2022/05/21 07:47:29;;;;;;;;;;;563.30;1945.60;;;;;;5114950;28;19903;-81
2022/05/21 07:49:58;;;;;;;;;;;563.40;1971.20;;;;;;5122767;28;19907;-78
2022/05/21 07:52:24;;;;;;;;;;;563.60;1945.60;;;;;;5121971;28;19903;-77
2022/05/21 07:54:50;;;;;;;;;;;563.60;1920.00;;;;;;5120882;28;19953;-79
2022/05/21 07:57:16;;;;;;;;;;;563.60;1920.00;;;;;;5116280;28;20314;-78
2022/05/21 07:59:41;;;;;;;;;;;563.70;1920.00;;;;;;5115035;28;19990;-79
2022/05/21 08:02:11;;;;;;;;;;;563.70;1920.00;;;;;;5114913;28;19926;-80
2022/05/21 08:04:37;;;;;;;;;;;563.90;1894.40;;;;;;5115017;28;19960;-81
2022/05/21 08:07:03;;;;;;;;;;;564.00;1894.40;;;;;;5114949;28;19947;-78
2022/05/21 08:09:29;;;;;;;;;;;589.20;1894.40;;;;;;5114966;28;19954;-80
2022/05/21 08:11:54;;;;;;;;;;;589.40;1868.80;;;;;;5114731;28;19915;-80
2022/05/21 08:14:20;;;;;;;;;;;589.60;1843.20;;;;;;5115913;28;20417;-79
2022/05/21 08:16:45;;;;;;;;;;;614.50;1817.60;;;;;;5115833;28;19904;-77
2022/05/21 08:19:12;;;;;;;;;;;614.60;1792.00;;;;;;5114812;28;19904;-82
2022/05/21 08:21:38;;;;;;;;;;;614.80;1766.40;;;;;;5114461;28;20049;-81
2022/05/21 08:26:57;;;;;;;;;;;615.10;1740.80;;;;;;5115993;28;20364;-81
2022/05/21 08:29:27;;;;;;;;;;;615.20;1766.40;;;;;;5114355;28;19961;-80
2022/05/21 08:31:54;;;;;;;;;;;615.30;1715.20;;;;;;5114594;28;19904;-81
2022/05/21 08:34:20;;;;;;;;;;;640.00;1715.20;;;;;;5114453;28;19904;-80
2022/05/21 08:36:45;;;;;;;;;;;640.10;1715.20;;;;;;5114296;28;19904;-80
2022/05/21 08:39:11;;;;;;;;;;;640.10;1689.60;;;;;;5114796;28;19969;-82
2022/05/21 08:41:42;;;;;;;;;;;640.40;1689.60;;;;;;5114579;28;19911;-82
2022/05/21 08:44:09;;;;;;;;;;;640.50;1689.60;;;;;;5114349;28;19904;-83
2022/05/21 08:46:53;;;;;;;;;;;640.90;1664.00;;;;;;5114395;28;19907;-82
2022/05/21 08:49:25;;;;;;;;;;;665.70;1689.60;;;;;;5113809;28;20007;-80
2022/05/21 08:51:55;;;;;;;;;;;665.80;1689.60;;;;;;5114181;28;19943;-79
2022/05/21 08:54:25;;;;;;;;;;;665.60;1664.00;;;;;;5113314;28;19904;-81
2022/05/21 08:56:52;;;;;;;;;;;665.80;1664.00;;;;;;5113789;28;20002;-78
2022/05/21 08:59:20;;;;;;;;;;;665.70;1664.00;;;;;;5113784;28;20104;-77
2022/05/21 09:01:47;;;;;;;;;;;640.90;1612.80;;;;;;5113832;28;19903;-82
2022/05/21 09:04:13;;;;;;;;;;;665.90;1664.00;;;;;;5114641;28;19903;-82
2022/05/21 09:06:51;;;;;;;;;;;666.30;1664.00;;;;;;5113886;28;19903;-81
2022/05/21 09:09:30;;;;;;;;;;;666.50;1612.80;;;;;;5113383;28;20012;-82
2022/05/21 09:11:57;;;;;;;;;;;691.30;1612.80;;;;;;5113227;28;19949;-80
2022/05/21 09:14:45;;;;;;;;;;;691.50;1612.80;;;;;;5113561;28;20341;-81
2022/05/21 09:17:16;;;;;;;;;;;691.70;1561.60;;;;;;5113609;28;19904;-81
2022/05/21 09:19:47;;;;;;;;;;;691.80;1561.60;;;;;;5112220;28;19904;-80
2022/05/21 09:22:13;;;;;;;;;;;691.20;1587.20;;;;;;5114504;28;19911;-80
2022/05/21 09:24:40;;;;;;;;;;;691.70;1587.20;;;;;;5114461;28;19903;-81
2022/05/21 09:27:20;;;;;;;;;;;691.80;1587.20;;;;;;5114523;28;19907;-79
2022/05/21 09:29:46;;;;;;;;;;;716.80;1612.80;;;;;;5113276;28;20006;-80
2022/05/21 09:32:17;;;;;;;;;;;717.20;1587.20;;;;;;5112982;28;19908;-80
2022/05/21 09:34:43;;;;;;;;;;;717.30;1561.60;;;;;;5113405;28;19904;-80
2022/05/21 09:37:17;;;;;;;;;;;717.40;1510.40;;;;;;5113140;28;19926;-81
2022/05/21 09:39:43;;;;;;;;;;;717.20;1536.00;;;;;;5113287;28;20322;-81
2022/05/21 09:45:23;;;;;;;;;;;717.50;1510.40;;;;;;5114705;28;20321;-81
2022/05/21 09:48:04;;;;;;;;;;;717.20;1510.40;;;;;;5113659;28;19957;-81
2022/05/21 09:50:31;;;;;;;;;;;716.90;1510.40;;;;;;5114719;28;19904;-81
2022/05/21 09:52:56;;;;;;;;;;;717.20;1510.40;;;;;;5113138;28;20048;-81
2022/05/21 09:55:29;;;;;;;;;;;717.70;1484.80;;;;;;5113231;28;19947;-81
2022/05/21 09:58:06;;;;;;;;;;;742.50;1484.80;;;;;;5113152;28;19908;-81
2022/05/21 10:00:33;;;;;;;;;;;742.90;1459.20;;;;;;5112971;28;19903;-81
2022/05/21 10:03:02;;;;;;;;;;;743.20;1433.60;;;;;;5114671;28;20340;-80
2022/05/21 10:05:32;;;;;;;;;;;768.00;1408.00;;;;;;5114923;28;19908;-81
2022/05/21 10:10:58;;;;;;;;;;;743.30;1382.40;;;;;;5118483;28;20362;-81
2022/05/21 10:13:25;;;;;;;;;;;743.30;1356.80;;;;;;5118062;28;19908;-81
2022/05/21 10:15:54;;;;;;;;;;;768.10;1356.80;;;;;;5117092;28;19982;-81
2022/05/21 10:18:23;;;;;;;;;;;768.10;1356.80;;;;;;5118048;28;19907;-82
2022/05/21 10:20:54;;;;;;;;;;;768.10;1331.20;;;;;;5116823;28;20267;-81
2022/05/21 10:23:34;;;;;;;;;;;768.60;1331.20;;;;;;5117068;28;19903;-81
2022/05/21 10:26:16;;;;;;;;;;;768.50;1305.60;;;;;;5117053;28;19903;-81
2022/05/21 10:28:45;;;;;;;;;;;768.60;1305.60;;;;;;5116496;28;19960;-80
2022/05/21 10:31:43;;;;;;;;;;;793.70;1331.20;;;;;;5118156;28;20237;-81
2022/05/21 10:34:08;;;;;;;;;;;768.80;1331.20;;;;;;5082584;28;19904;-81
2022/05/21 10:36:43;;;;;;;;;;;793.90;1331.20;;;;;;5116648;28;20382;-81
2022/05/21 10:39:12;;;;;;;;;;;794.20;1331.20;;;;;;5116061;28;19915;-80
2022/05/21 10:41:43;;;;;;;;;;;794.50;1305.60;;;;;;5116433;28;19976;-81
2022/05/21 10:44:20;;;;;;;;;;;794.30;1280.00;;;;;;5116597;28;19903;-81
2022/05/21 10:46:58;;;;;;;;;;;794.40;1331.20;;;;;;5116705;28;19956;-81
2022/05/21 10:49:42;;;;;;;;;;;819.50;1331.20;;;;;;5116139;28;19912;-80
2022/05/21 10:52:15;;;;;;;;;;;819.70;1305.60;;;;;;5116363;28;19903;-80
2022/05/21 10:54:41;;;;;;;;;;;;;;;;;;5116388;28;19904;-81
2022/05/21 10:57:32;;;;;;;;;;;820.10;1331.20;;;;;;5117013;28;19904;-81
2022/05/21 11:00:05;;;;;;;;;;;844.80;1331.20;;;;;;5116115;28;20260;-80
2022/05/21 11:02:49;;;;;;;;;;;819.50;1305.60;;;;;;5115913;28;19947;-80
2022/05/21 11:05:33;;;;;;;;;;;819.60;1331.20;;;;;;5116005;28;20001;-82
2022/05/21 11:08:17;;;;;;;;;;;820.10;1331.20;;;;;;5116113;28;19918;-81
2022/05/21 11:10:43;;;;;;;;;;;844.80;1331.20;;;;;;5116819;28;19993;-80
2022/05/21 11:13:12;;;;;;;;;;;844.90;1305.60;;;;;;5116033;28;19976;-81
2022/05/21 11:15:48;;;;;;;;;;;845.00;1305.60;;;;;;5116070;28;19907;-82
2022/05/21 11:18:32;;;;;;;;;;;845.00;1305.60;;;;;;5115551;28;19968;-81
2022/05/21 11:21:01;;;;;;;;;;;845.00;1305.60;;;;;;5116815;28;19904;-82
2022/05/21 11:23:32;;;;;;;;;;;844.90;1305.60;;;;;;5115556;28;20335;-82
2022/05/21 11:26:04;;;;;;;;;;;845.00;1331.20;;;;;;5115725;28;20272;-81
2022/05/21 11:28:37;;;;;;;;;;;845.10;1331.20;;;;;;5115687;28;20272;-81
2022/05/21 11:31:08;;;;;;;;;;;819.50;1331.20;;;;;;5116508;28;19904;-81
2022/05/21 11:39:07;;;;;;;;;;;820.00;1331.20;;;;;;5116602;28;20305;-82
2022/05/21 11:41:53;;;;;;;;;;;845.20;1331.20;;;;;;5116587;28;19990;-81
2022/05/21 11:47:06;;;;;;;;;;;845.40;1331.20;;;;;;5116733;28;19910;-82
2022/05/21 11:49:40;;;;;;;;;;;845.20;1331.20;;;;;;5115237;28;20261;-82
2022/05/21 11:52:06;;;;;;;;;;;;;;;;;;5115017;28;19903;-83
2022/05/21 11:54:44;;;;;;;;;;;845.70;1331.20;;;;;;5115336;28;19904;-81
2022/05/21 11:57:10;;;;;;;;;;;870.70;1356.80;;;;;;5115196;28;19957;-81
2022/05/21 11:59:54;;;;;;;;;;;870.40;1331.20;;;;;;5114787;28;19904;-78
2022/05/21 12:02:21;;;;;;;;;;;845.70;1331.20;;;;;;5115828;27;20276;-80
2022/05/21 12:04:48;;;;;;;;;;;870.40;1331.20;;;;;;5114917;28;20268;-81
2022/05/21 12:07:17;;;;;;;;;;;870.70;1305.60;;;;;;5114602;28;19903;-80
2022/05/21 12:10:01;;;;;;;;;;;870.70;1305.60;;;;;;5114666;28;19919;-79
2022/05/21 12:12:28;;;;;;;;;;;870.90;1305.60;;;;;;5114248;28;19986;-78
2022/05/21 12:14:55;;;;;;;;;;;871.20;1305.60;;;;;;5114704;28;19907;-79
2022/05/21 12:17:36;;;;;;;;;;;871.30;1280.00;;;;;;5114649;28;20190;-79
2022/05/21 12:20:04;;;;;;;;;;;871.30;1280.00;;;;;;5115457;28;19979;-79
2022/05/21 12:22:36;;;;;;;;;;;870.90;1305.60;;;;;;5114489;28;20221;-77
2022/05/21 12:25:03;;;;;;;;;;;870.90;1305.60;;;;;;5114552;28;19904;-77
2022/05/21 12:27:28;;;;;;;;;;;871.30;1305.60;;;;;;5114041;28;19949;-76
2022/05/21 12:29:58;;;;;;;;;;;896.10;1331.20;;;;;;5114651;28;19916;-78
2022/05/21 12:32:24;;;;;;;;;;;896.30;1305.60;;;;;;5115404;28;20380;-77
2022/05/21 12:34:53;;;;;;;;;;;896.70;1280.00;;;;;;5113861;28;19907;-77
2022/05/21 12:37:22;;;;;;;;;;;896.60;1254.40;;;;;;5113893;28;19907;-76
2022/05/21 12:39:47;;;;;;;;;;;896.70;1254.40;;;;;;5113947;28;19953;-77
2022/05/21 12:42:19;;;;;;;;;;;896.70;1254.40;;;;;;5113809;28;19908;-78
2022/05/21 12:44:47;;;;;;;;;;;896.70;1254.40;;;;;;5114922;28;19994;-77
2022/05/21 12:47:24;;;;;;;;;;;896.20;1254.40;;;;;;5113661;28;19904;-77
2022/05/21 12:49:50;;;;;;;;;;;896.10;1280.00;;;;;;5113837;28;20003;-78
2022/05/21 12:52:21;;;;;;;;;;;896.30;1254.40;;;;;;5113892;28;19911;-78
2022/05/21 12:54:46;;;;;;;;;;;896.30;1254.40;;;;;;5114809;28;19904;-78
2022/05/21 12:57:13;;;;;;;;;;;896.60;1254.40;;;;;;5114076;28;20340;-79
2022/05/21 12:59:39;;;;;;;;;;;896.90;1254.40;;;;;;5113793;28;20337;-78
2022/05/21 13:02:11;;;;;;;;;;;921.70;1254.40;;;;;;5113315;28;20006;-78
2022/05/21 13:04:39;;;;;;;;;;;921.90;1254.40;;;;;;5113616;28;19950;-78
2022/05/21 13:07:07;;;;;;;;;;;922.00;1254.40;;;;;;5113595;28;19994;-78
2022/05/21 13:09:35;;;;;;;;;;;922.00;1254.40;;;;;;5113209;28;19911;-77
2022/05/21 13:12:02;;;;;;;;;;;922.30;1254.40;;;;;;5114848;28;20382;-77
2022/05/21 13:14:37;;;;;;;;;;;922.10;1228.80;;;;;;5113699;28;19951;-78
2022/05/21 13:17:03;;;;;;;;;;;922.30;1254.40;;;;;;5113353;28;19903;-78
2022/05/21 13:19:39;;;;;;;;;;;922.00;1254.40;;;;;;5113496;28;19903;-78
2022/05/21 13:22:08;;;;;;;;;;;922.40;1254.40;;;;;;5113404;28;19908;-77
2022/05/21 13:24:42;;;;;;;;;;;922.40;1254.40;;;;;;5113549;28;20325;-77
2022/05/21 13:27:10;;;;;;;;;;;922.40;1228.80;;;;;;5113499;28;20408;-78
2022/05/21 13:29:36;;;;;;;;;;;922.30;1228.80;;;;;;5114118;28;19920;-77
2022/05/21 13:32:15;;;;;;;;;;;922.30;1254.40;;;;;;5113341;28;19904;-79
2022/05/21 13:34:41;;;;;;;;;;;922.00;1254.40;;;;;;5112974;28;19904;-80
2022/05/21 13:37:07;;;;;;;;;;;921.80;1280.00;;;;;;5113643;28;19926;-81
2022/05/21 13:39:34;;;;;;;;;;;921.60;1280.00;;;;;;5112952;28;20272;-79
2022/05/21 13:42:04;;;;;;;;;;;921.70;1280.00;;;;;;5113308;28;19904;-80
2022/05/21 13:44:34;;;;;;;;;;;896.90;1254.40;;;;;;5114154;28;19907;-79
2022/05/21 13:47:02;;;;;;;;;;;896.90;1254.40;;;;;;5113253;28;20276;-79
2022/05/21 13:49:30;;;;;;;;;;;896.90;1254.40;;;;;;5114418;28;19911;-81
2022/05/21 13:51:56;;;;;;;;;;;921.70;1305.60;;;;;;5114162;28;19998;-80
2022/05/21 13:54:25;;;;;;;;;;;896.90;1254.40;;;;;;5114332;28;20336;-80
2022/05/21 13:57:01;;;;;;;;;;;921.70;1254.40;;;;;;5113058;28;19911;-80
2022/05/21 13:59:26;;;;;;;;;;;921.60;1280.00;;;;;;5113036;28;19904;-80
2022/05/21 14:01:54;;;;;;;;;;;896.90;1254.40;;;;;;5113138;28;19926;-81
2022/05/21 14:04:39;;;;;;;;;;;896.90;1254.40;;;;;;5112742;28;19908;-81
2022/05/21 14:07:16;;;;;;;;;;;896.90;1254.40;;;;;;5112820;28;19903;-79
2022/05/21 14:09:44;;;;;;;;;;;896.70;1254.40;;;;;;5113093;28;19924;-81
2022/05/21 14:12:17;;;;;;;;;;;896.40;1254.40;;;;;;5112718;28;19904;-82
2022/05/21 14:14:42;;;;;;;;;;;896.50;1254.40;;;;;;5114366;28;19952;-81
2022/05/21 14:17:14;;;;;;;;;;;896.60;1254.40;;;;;;5112894;28;19903;-78
2022/05/21 14:19:40;;;;;;;;;;;896.60;1254.40;;;;;;5112526;28;20336;-80
2022/05/21 14:22:16;;;;;;;;;;;896.50;1280.00;;;;;;5113184;28;20014;-81